createdAt,value
2023-05-24T00:01:03.253Z,100191.40
2023-05-24T00:06:13.506Z,100184.00
2023-05-24T00:11:23.710Z,100183.20
2023-05-24T00:16:33.888Z,100180.20
2023-05-24T00:21:43.652Z,100183.20
2023-05-24T00:26:53.537Z,100182.60
2023-05-24T00:32:03.810Z,100180.40
2023-05-24T00:37:13.927Z,100181.00
2023-05-24T00:42:23.907Z,100176.00
2023-05-24T00:47:34.059Z,100167.60
2023-05-24T00:52:44.160Z,100164.40
2023-05-24T00:57:56.867Z,100161.20
2023-05-24T01:03:06.712Z,100160.40
2023-05-24T01:08:33.083Z,100158.40
2023-05-24T01:13:55.549Z,100158.40
2023-05-24T01:19:19.579Z,100152.40
2023-05-24T01:24:57.483Z,100162.20
2023-05-24T01:30:08.836Z,100165.60
2023-05-24T01:35:18.540Z,100166.60
2023-05-24T01:40:29.110Z,100164.40
2023-05-24T01:45:52.286Z,100167.00
2023-05-24T01:51:07.383Z,100172.20
2023-05-24T01:56:20.889Z,100174.80
2023-05-24T02:01:32.163Z,100173.80
2023-05-24T02:06:41.973Z,100173.20
2023-05-24T02:11:51.876Z,100170.00
2023-05-24T02:17:03.143Z,100170.80
2023-05-24T02:22:13.845Z,100163.60
2023-05-24T02:27:23.860Z,100168.00
2023-05-24T02:32:33.736Z,100169.20
2023-05-24T02:37:43.959Z,100162.80
2023-05-24T02:42:53.997Z,100165.80
2023-05-24T02:48:03.838Z,100160.60
2023-05-24T02:53:13.500Z,100161.60
2023-05-24T02:58:23.323Z,100159.80
2023-05-24T03:03:33.070Z,100160.20
2023-05-24T03:08:42.934Z,100161.00
2023-05-24T03:13:52.705Z,100163.20
2023-05-24T03:19:02.606Z,100167.60
2023-05-24T03:24:14.581Z,100163.00
2023-05-24T03:29:24.259Z,100167.60
2023-05-24T03:34:34.038Z,100168.20
2023-05-24T03:39:43.879Z,100172.00
2023-05-24T03:44:53.634Z,100178.20
2023-05-24T03:50:03.504Z,100177.60
2023-05-24T03:55:15.271Z,100177.40
2023-05-24T04:00:25.919Z,100167.80
2023-05-24T04:05:35.915Z,100169.00
2023-05-24T04:10:45.780Z,100177.80
2023-05-24T04:15:56.035Z,100186.00
2023-05-24T04:21:06.509Z,100182.60
2023-05-24T04:26:17.978Z,100184.80
2023-05-24T04:31:29.791Z,100194.60
2023-05-24T04:36:39.586Z,100205.20
2023-05-24T04:41:51.446Z,100202.60
2023-05-24T04:47:03.205Z,100209.20
2023-05-24T04:52:13.498Z,100215.20
2023-05-24T04:57:23.102Z,100217.80
2023-05-24T05:02:33.432Z,100226.00
2023-05-24T05:07:43.643Z,100230.40
2023-05-24T05:12:53.447Z,100235.60
2023-05-24T05:18:03.488Z,100239.20
2023-05-24T05:23:13.358Z,100242.20
2023-05-24T05:28:23.812Z,100243.60
2023-05-24T05:33:34.252Z,100253.80
2023-05-24T05:38:44.661Z,100255.60
2023-05-24T05:43:54.758Z,100264.60
2023-05-24T05:49:04.640Z,100267.20
2023-05-24T05:54:18.591Z,100274.20
2023-05-24T05:59:28.704Z,100282.00
2023-05-24T06:04:38.474Z,100276.00
2023-05-24T06:09:48.398Z,100283.60
2023-05-24T06:14:59.985Z,100289.20
2023-05-24T06:20:16.177Z,100290.40
2023-05-24T06:25:26.426Z,100290.60
2023-05-24T06:30:36.213Z,100301.60
2023-05-24T06:35:47.334Z,100309.80
2023-05-24T06:40:57.491Z,100305.60
2023-05-24T06:46:08.026Z,100310.60
2023-05-24T06:51:18.486Z,100316.20
2023-05-24T06:56:29.333Z,100323.60
2023-05-24T07:01:40.395Z,100324.40
2023-05-24T07:06:51.154Z,100332.60
2023-05-24T07:12:01.165Z,100336.40
2023-05-24T07:17:11.417Z,100346.00
2023-05-24T07:22:22.543Z,100356.00
2023-05-24T07:27:32.214Z,100358.00
2023-05-24T07:32:42.424Z,100365.20
2023-05-24T07:37:52.033Z,100365.20
2023-05-24T07:43:03.784Z,100370.60
2023-05-24T07:48:14.108Z,100383.80
2023-05-24T07:53:24.481Z,100383.80
2023-05-24T07:58:34.614Z,100391.20
2023-05-24T08:03:44.840Z,100391.20
2023-05-24T08:08:55.180Z,100398.40
2023-05-24T08:14:05.206Z,100406.40
2023-05-24T08:19:15.497Z,100411.80
2023-05-24T08:24:25.957Z,100411.80
2023-05-24T08:29:35.669Z,100421.00
2023-05-24T08:34:45.605Z,100424.20
2023-05-24T08:39:55.401Z,100424.40
2023-05-24T08:45:12.912Z,100422.60
2023-05-24T08:50:23.991Z,100431.40
2023-05-24T08:55:35.510Z,100437.60
2023-05-24T09:00:45.125Z,100441.00
2023-05-24T09:05:56.099Z,100442.40
2023-05-24T09:11:07.606Z,100448.40
2023-05-24T09:16:18.775Z,100442.60
2023-05-24T09:21:29.846Z,100453.20
2023-05-24T09:26:41.183Z,100450.40
2023-05-24T09:31:51.917Z,100457.40
2023-05-24T09:37:03.596Z,100454.00
2023-05-24T09:42:21.473Z,100465.60
2023-05-24T09:47:35.159Z,100470.00
2023-05-24T09:52:46.502Z,100466.20
2023-05-24T09:58:08.632Z,100479.00
2023-05-24T10:03:18.421Z,100482.20
2023-05-24T10:08:29.290Z,100480.80
2023-05-24T10:13:39.513Z,100493.20
2023-05-24T10:18:49.258Z,100480.20
2023-05-24T10:24:03.855Z,100490.60
2023-05-24T10:29:25.824Z,100485.60
2023-05-24T10:34:36.896Z,100483.00
2023-05-24T10:39:47.126Z,100485.20
2023-05-24T10:44:59.777Z,100490.00
2023-05-24T10:50:22.681Z,100483.20
2023-05-24T10:55:36.072Z,100483.20
2023-05-24T11:00:49.385Z,100483.80
2023-05-24T11:06:00.967Z,100484.00
2023-05-24T11:16:40.873Z,100485.80
2023-05-24T11:21:53.756Z,100473.60
2023-05-24T11:27:06.433Z,100483.40
2023-05-24T11:32:21.155Z,100499.20
2023-05-24T11:37:42.508Z,100484.60
2023-05-24T11:42:58.350Z,100486.00
2023-05-24T11:48:11.425Z,100481.80
2023-05-24T11:53:22.769Z,100485.80
2023-05-24T11:58:46.839Z,100492.00
2023-05-24T12:03:57.852Z,100497.60
2023-05-24T12:09:13.743Z,100494.00
2023-05-24T12:14:27.758Z,100495.80
2023-05-24T12:19:38.284Z,100494.20
2023-05-24T12:24:52.525Z,100499.80
2023-05-24T12:30:19.212Z,100508.20
2023-05-24T12:35:29.105Z,100511.40
2023-05-24T12:40:43.109Z,100512.20
2023-05-24T12:45:54.484Z,100511.20
2023-05-24T12:51:04.584Z,100513.80
2023-05-24T12:56:15.252Z,100515.80
2023-05-24T13:01:25.869Z,100522.80
2023-05-24T13:06:36.004Z,100527.00
2023-05-24T13:11:45.732Z,100530.20
2023-05-24T13:16:55.506Z,100521.80
2023-05-24T13:22:05.760Z,100529.40
2023-05-24T13:27:15.390Z,100528.60
2023-05-24T13:32:25.210Z,100521.60
2023-05-24T13:37:35.406Z,100516.40
2023-05-24T13:42:45.338Z,100522.00
2023-05-24T13:47:58.667Z,100521.80
2023-05-24T13:53:09.318Z,100519.00
2023-05-24T13:58:19.777Z,100520.60
2023-05-24T14:03:29.697Z,100519.20
2023-05-24T14:08:39.372Z,100511.60
2023-05-24T14:19:02.335Z,100512.80
2023-05-24T14:24:12.744Z,100515.60
2023-05-24T14:29:22.357Z,100504.40
2023-05-24T14:34:32.139Z,100511.20
2023-05-24T14:39:41.908Z,100515.80
2023-05-24T14:44:51.554Z,100505.40
2023-05-24T14:50:01.194Z,100525.60
2023-05-24T14:55:13.123Z,100520.40
2023-05-24T15:00:28.473Z,100530.80
2023-05-24T15:05:39.732Z,100528.80
2023-05-24T15:10:49.512Z,100530.20
2023-05-24T15:16:01.012Z,100532.80
2023-05-24T15:21:10.933Z,100531.80
2023-05-24T15:26:21.433Z,100533.80
2023-05-24T15:31:31.241Z,100530.20
2023-05-24T15:36:41.672Z,100539.00
2023-05-24T15:41:51.509Z,100533.00
2023-05-24T15:47:01.435Z,100525.00
2023-05-24T15:52:12.187Z,100433.60
2023-05-24T15:57:22.283Z,100434.80
2023-05-24T16:02:32.087Z,100434.40
2023-05-24T16:07:41.930Z,100440.40
2023-05-24T16:12:51.655Z,100453.00
2023-05-24T16:18:02.988Z,100542.00
2023-05-24T16:23:12.674Z,100459.20
2023-05-24T16:28:24.463Z,100575.80
2023-05-24T16:33:34.532Z,100568.40
2023-05-24T16:38:44.699Z,100570.20
2023-05-24T16:43:54.778Z,100574.20
2023-05-24T16:49:06.799Z,100572.60
2023-05-24T16:54:18.061Z,100527.00
2023-05-24T16:59:30.077Z,100456.00
2023-05-24T17:04:40.888Z,100475.00
2023-05-24T17:09:51.627Z,100567.00
2023-05-24T17:15:01.373Z,100598.60
2023-05-24T17:20:14.318Z,100577.40
2023-05-24T17:25:24.268Z,100599.80
2023-05-24T17:30:34.399Z,100599.40
2023-05-24T17:35:44.455Z,100598.40
2023-05-24T17:40:57.292Z,100604.80
2023-05-24T17:46:08.333Z,100609.60
2023-05-24T17:51:19.883Z,100613.60
2023-05-24T17:56:30.819Z,100612.00
2023-05-24T18:01:41.350Z,100619.20
2023-05-24T18:06:51.462Z,100621.60
2023-05-24T18:12:01.528Z,100622.00
2023-05-24T18:17:11.745Z,100628.00
2023-05-24T18:22:21.909Z,100637.00
2023-05-24T18:27:31.942Z,100638.00
2023-05-24T18:32:52.093Z,100638.60
2023-05-24T18:38:11.676Z,100645.80
2023-05-24T18:43:21.457Z,100656.80
2023-05-24T18:48:31.301Z,100664.00
2023-05-24T18:53:41.678Z,100668.00
2023-05-24T18:58:52.364Z,100671.80
2023-05-24T19:04:03.154Z,100677.00
2023-05-24T19:09:13.019Z,100674.40
2023-05-24T19:14:23.264Z,100675.80
2023-05-24T19:19:33.116Z,100674.40
2023-05-24T19:24:43.112Z,100679.60
2023-05-24T19:29:53.151Z,100676.60
2023-05-24T19:35:02.985Z,100673.20
2023-05-24T19:40:15.274Z,100677.80
2023-05-24T19:45:25.252Z,100679.60
2023-05-24T19:50:34.946Z,100679.40
2023-05-24T19:55:44.907Z,100689.60
2023-05-24T20:00:54.963Z,100686.80
2023-05-24T20:06:04.739Z,100692.20
2023-05-24T20:11:14.703Z,100691.40
2023-05-24T20:16:25.717Z,100689.60
2023-05-24T20:21:35.651Z,100688.40
2023-05-24T20:26:45.789Z,100690.00
2023-05-24T20:31:56.169Z,100687.80
2023-05-24T20:37:06.788Z,100687.00
2023-05-24T20:42:16.890Z,100686.60
2023-05-24T20:47:28.136Z,100685.60
2023-05-24T20:52:40.090Z,100694.80
2023-05-24T20:57:49.843Z,100690.00
2023-05-24T21:02:59.591Z,100693.80
2023-05-24T21:08:09.478Z,100701.80
2023-05-24T21:13:20.735Z,100708.00
2023-05-24T21:18:30.439Z,100716.80
2023-05-24T21:23:40.444Z,100726.20
2023-05-24T21:28:50.370Z,100725.20
2023-05-24T21:34:00.114Z,100720.60
2023-05-24T21:39:09.960Z,100719.40
2023-05-24T21:44:19.676Z,100726.20
2023-05-24T21:49:29.669Z,100732.80
2023-05-24T21:54:39.317Z,100738.40
2023-05-24T21:59:49.295Z,100737.40
2023-05-24T22:04:59.076Z,100731.40
2023-05-24T22:10:12.301Z,100734.20
2023-05-24T22:15:22.430Z,100728.00
2023-05-24T22:20:32.557Z,100732.60
2023-05-24T22:25:42.972Z,100734.40
2023-05-24T22:30:53.398Z,100727.00
2023-05-24T22:36:03.117Z,100725.40
2023-05-24T22:41:13.036Z,100725.60
2023-05-24T22:46:23.460Z,100722.20
2023-05-24T22:51:33.790Z,100721.40
2023-05-24T22:56:43.706Z,100720.60
2023-05-24T23:01:54.140Z,100730.60
2023-05-24T23:07:03.900Z,100730.20
2023-05-24T23:12:14.455Z,100726.00
2023-05-24T23:17:24.220Z,100722.60
2023-05-24T23:22:34.188Z,100723.80
2023-05-24T23:27:44.478Z,100729.20
2023-05-24T23:32:54.293Z,100729.80
2023-05-24T23:38:04.030Z,100725.00
2023-05-24T23:43:14.054Z,100721.00
2023-05-24T23:48:25.190Z,100715.40
2023-05-24T23:53:34.767Z,100718.60
2023-05-24T23:58:44.903Z,100723.20
